Time;durP1;ratioP1;P1;durP2;ratioP2;P2;SDS_P1;SDS_P2;PMS_P1;PMS_P2;Temp;Humidity;BMP_temperature;BMP_pressure;BME280_temperature;BME280_humidity;BME280_pressure;Samples;Min_cycle;Max_cycle;Signal;HPM_P1;HPM_P2
2021/09/02 00:01:53;;;;;;;8.55;5.10;;;;;;;-146.90;100.00;60518.97;5052312;28;20482;-67
2021/09/02 00:04:19;;;;;;;9.05;5.13;;;;;;;-146.90;100.00;60518.97;5053274;28;20021;-69
2021/09/02 00:06:44;;;;;;;10.80;5.60;;;;;;;-146.90;100.00;60518.97;5052382;28;20543;-68
2021/09/02 00:09:09;;;;;;;9.40;5.57;;;;;;;-146.90;100.00;60518.97;5052053;28;20098;-68
2021/09/02 00:11:35;;;;;;;8.80;5.32;;;;;;;-146.90;100.00;60518.97;5052236;28;20063;-68
2021/09/02 00:14:00;;;;;;;10.00;5.20;;;;;;;-146.90;100.00;60518.97;5052181;28;20433;-69
2021/09/02 00:16:25;;;;;;;8.95;5.30;;;;;;;-146.90;100.00;60518.97;5052459;28;20021;-71
2021/09/02 00:18:51;;;;;;;11.85;5.53;;;;;;;-146.90;100.00;60518.97;5051878;28;20490;-67
2021/09/02 00:21:16;;;;;;;10.57;5.70;;;;;;;-146.90;100.00;60518.97;5050626;28;20371;-69
2021/09/02 00:23:41;;;;;;;10.27;5.47;;;;;;;-146.90;100.00;60518.97;5052396;28;20036;-68
2021/09/02 00:26:07;;;;;;;9.95;5.05;;;;;;;-146.90;100.00;60518.97;5052677;28;20467;-69
2021/09/02 00:28:32;;;;;;;10.68;5.20;;;;;;;-146.90;100.00;60518.97;5052589;28;20435;-72
2021/09/02 00:30:57;;;;;;;9.80;5.05;;;;;;;-146.90;100.00;60518.97;5051668;28;20040;-68
2021/09/02 00:33:22;;;;;;;10.07;5.20;;;;;;;-146.90;100.00;60518.97;5052088;28;20021;-70
2021/09/02 00:35:48;;;;;;;8.23;4.93;;;;;;;-146.90;100.00;60518.97;5051794;28;20386;-69
2021/09/02 00:38:14;;;;;;;8.90;4.97;;;;;;;-146.90;100.00;60518.97;5051238;28;20025;-69
2021/09/02 00:40:39;;;;;;;8.55;5.25;;;;;;;-146.90;100.00;60518.97;5051827;28;20071;-69
2021/09/02 00:43:05;;;;;;;11.13;5.35;;;;;;;-146.90;100.00;60518.97;5051289;28;20025;-68
2021/09/02 00:45:32;;;;;;;11.25;4.88;;;;;;;-146.90;100.00;60518.97;5050323;28;20033;-69
2021/09/02 00:47:57;;;;;;;10.70;5.07;;;;;;;-146.90;100.00;60518.97;5051366;28;20025;-69
2021/09/02 00:50:22;;;;;;;10.32;4.97;;;;;;;-146.90;100.00;60518.97;5051496;28;20066;-67
2021/09/02 00:52:48;;;;;;;8.35;4.97;;;;;;;-146.90;100.00;60518.97;5051429;28;20025;-68
2021/09/02 00:55:13;;;;;;;9.38;5.05;;;;;;;-146.90;100.00;60518.97;5051139;28;20031;-69
2021/09/02 00:57:39;;;;;;;10.77;5.00;;;;;;;-146.90;100.00;60518.97;5051512;28;20029;-68
2021/09/02 01:00:10;;;;;;;11.73;5.47;;;;;;;-146.90;100.00;60518.97;5050162;28;20103;-68
2021/09/02 01:02:35;;;;;;;8.00;5.20;;;;;;;-146.90;100.00;60518.97;5051792;28;20024;-69
2021/09/02 01:05:01;;;;;;;9.77;4.85;;;;;;;-146.90;100.00;60518.97;5050793;28;20066;-68
2021/09/02 01:07:30;;;;;;;10.27;5.50;;;;;;;-146.90;100.00;60518.97;5049869;28;20125;-68
2021/09/02 01:09:57;;;;;;;9.82;5.35;;;;;;;-146.90;100.00;60518.97;5050876;28;20390;-69
2021/09/02 01:12:35;;;;;;;9.02;4.82;;;;;;;-146.90;100.00;60518.97;5049973;28;20021;-69
2021/09/02 01:15:03;;;;;;;9.48;5.00;;;;;;;-146.90;100.00;60518.97;5032848;28;20024;-71
2021/09/02 01:17:29;;;;;;;10.30;5.50;;;;;;;-146.90;100.00;60518.97;5050892;28;20086;-69
2021/09/02 01:19:55;;;;;;;10.60;4.82;;;;;;;-146.90;100.00;60518.97;5050726;28;20029;-69
2021/09/02 01:22:23;;;;;;;8.77;4.88;;;;;;;-146.90;100.00;60518.97;5051129;28;20021;-68
2021/09/02 01:24:48;;;;;;;10.45;4.97;;;;;;;-146.90;100.00;60518.97;5049476;28;20032;-68
2021/09/02 01:27:14;;;;;;;10.70;5.50;;;;;;;-146.90;100.00;60518.97;5051459;28;20025;-68
2021/09/02 01:29:39;;;;;;;10.15;5.15;;;;;;;-146.90;100.00;60518.97;5049749;28;20043;-70
2021/09/02 01:32:05;;;;;;;10.18;5.00;;;;;;;-146.90;100.00;60518.97;5050288;28;20417;-69
2021/09/02 01:34:31;;;;;;;10.23;5.20;;;;;;;-146.90;100.00;60518.97;5049013;28;20029;-68
2021/09/02 01:36:56;;;;;;;9.07;4.75;;;;;;;-146.90;100.00;60518.97;5050588;28;20056;-68
2021/09/02 01:39:21;;;;;;;9.32;5.13;;;;;;;-146.90;100.00;60518.97;5032735;28;20059;-67
2021/09/02 01:41:47;;;;;;;9.63;5.22;;;;;;;-146.90;100.00;60518.97;5050478;28;20028;-70
2021/09/02 01:44:12;;;;;;;14.10;5.38;;;;;;;-146.90;100.00;60518.97;5050372;28;20063;-69
2021/09/02 01:46:38;;;;;;;9.70;4.63;;;;;;;-146.90;100.00;60518.97;5048808;28;20028;-67
2021/09/02 01:49:03;;;;;;;10.90;5.50;;;;;;;-146.90;100.00;60518.97;5050333;28;20462;-69
2021/09/02 01:51:29;;;;;;;11.20;5.72;;;;;;;-146.90;100.00;60518.97;5049023;28;20534;-68
2021/09/02 01:53:54;;;;;;;11.80;5.68;;;;;;;-146.90;100.00;60518.97;5050329;28;20493;-68
2021/09/02 01:56:19;;;;;;;12.25;5.80;;;;;;;-146.90;100.00;60518.97;5048598;28;20024;-69
2021/09/02 01:58:45;;;;;;;11.45;6.65;;;;;;;-146.90;100.00;60518.97;5050392;28;20082;-69
2021/09/02 02:01:11;;;;;;;12.48;6.07;;;;;;;-146.90;100.00;60518.97;5048791;28;20403;-69
2021/09/02 02:03:36;;;;;;;12.30;5.63;;;;;;;-146.90;100.00;60518.97;5050202;28;20112;-69
2021/09/02 02:06:02;;;;;;;10.50;5.47;;;;;;;-146.90;100.00;60518.97;5049801;28;20103;-68
2021/09/02 02:08:27;;;;;;;10.43;5.05;;;;;;;-146.90;100.00;60518.97;5050234;28;20107;-68
2021/09/02 02:10:52;;;;;;;12.05;5.60;;;;;;;-146.90;100.00;60518.97;5050027;28;20688;-69
2021/09/02 02:13:18;;;;;;;9.20;4.60;;;;;;;-146.90;100.00;60518.97;5049916;28;20024;-69
2021/09/02 02:15:43;;;;;;;10.73;5.05;;;;;;;-146.90;100.00;60518.97;5048548;28;20035;-69
2021/09/02 02:18:08;;;;;;;10.95;4.78;;;;;;;-146.90;100.00;60518.97;5049836;28;20043;-69
2021/09/02 02:20:34;;;;;;;12.57;5.20;;;;;;;-146.90;100.00;60518.97;5050189;28;20392;-70
2021/09/02 02:22:59;;;;;;;15.20;5.28;;;;;;;-146.90;100.00;60518.97;5048524;28;20410;-67
2021/09/02 02:25:25;;;;;;;11.02;5.35;;;;;;;-146.90;100.00;60518.97;5050121;28;20351;-67
2021/09/02 02:27:50;;;;;;;9.70;5.47;;;;;;;-146.90;100.00;60518.97;5048344;28;20021;-69
2021/09/02 02:30:18;;;;;;;11.55;5.32;;;;;;;-146.90;100.00;60518.97;5050050;28;20021;-69
2021/09/02 02:32:44;;;;;;;11.40;5.82;;;;;;;-146.90;100.00;60518.97;5048701;28;20106;-69
2021/09/02 02:35:10;;;;;;;11.80;5.25;;;;;;;-146.90;100.00;60518.97;5049667;28;20036;-68
2021/09/02 02:37:36;;;;;;;9.45;5.15;;;;;;;-146.90;100.00;60518.97;5049868;28;20109;-69
2021/09/02 02:40:02;;;;;;;11.40;5.15;;;;;;;-146.90;100.00;60518.97;5049921;28;20064;-70
2021/09/02 02:42:28;;;;;;;10.63;5.05;;;;;;;-146.90;100.00;60518.97;5049297;28;20087;-69
2021/09/02 02:44:53;;;;;;;9.75;4.90;;;;;;;-146.90;100.00;60518.97;5048040;28;20041;-69
2021/09/02 02:47:18;;;;;;;14.65;5.60;;;;;;;-146.90;100.00;60518.97;5049854;28;20028;-69
2021/09/02 02:49:44;;;;;;;8.95;5.00;;;;;;;-146.90;100.00;60518.97;5049460;28;20029;-69
2021/09/02 02:52:09;;;;;;;11.18;5.03;;;;;;;-146.90;100.00;60518.97;5049219;28;20076;-69
2021/09/02 02:54:36;;;;;;;9.88;5.13;;;;;;;-146.90;100.00;60518.97;5048168;28;20021;-69
2021/09/02 02:57:01;;;;;;;17.00;5.63;;;;;;;-146.90;100.00;60518.97;5047869;28;20029;-69
2021/09/02 02:59:26;;;;;;;10.55;5.05;;;;;;;-146.90;100.00;60518.97;5049384;28;20107;-71
2021/09/02 03:01:52;;;;;;;10.60;5.07;;;;;;;-146.90;100.00;60518.97;5047686;28;20367;-70
2021/09/02 03:04:17;;;;;;;10.68;5.05;;;;;;;-146.90;100.00;60518.97;5048996;28;20021;-69
2021/09/02 03:06:43;;;;;;;12.43;6.20;;;;;;;-146.90;100.00;60518.97;5048218;28;20102;-69
2021/09/02 03:09:08;;;;;;;13.52;5.25;;;;;;;-146.90;100.00;60518.97;5049148;28;20029;-72
2021/09/02 03:11:34;;;;;;;10.18;5.90;;;;;;;-146.90;100.00;60518.97;5049472;28;20025;-71
2021/09/02 03:13:59;;;;;;;10.77;6.18;;;;;;;-146.90;100.00;60518.97;5048920;28;20039;-67
2021/09/02 03:16:25;;;;;;;12.18;5.80;;;;;;;-146.90;100.00;60518.97;5047824;28;20036;-69
2021/09/02 03:18:50;;;;;;;10.68;5.43;;;;;;;-146.90;100.00;60518.97;5049030;28;20103;-68
2021/09/02 03:21:15;;;;;;;14.73;6.47;;;;;;;-146.90;100.00;60518.97;5047889;28;20084;-69
2021/09/02 03:23:41;;;;;;;14.20;6.53;;;;;;;-146.90;100.00;60518.97;5048757;28;20025;-71
2021/09/02 03:26:06;;;;;;;11.73;6.35;;;;;;;-146.90;100.00;60518.97;5048117;28;20029;-68
2021/09/02 03:28:32;;;;;;;12.68;6.00;;;;;;;-146.90;100.00;60518.97;5047970;28;20017;-68
2021/09/02 03:30:57;;;;;;;13.13;6.40;;;;;;;-146.90;100.00;60518.97;5049748;28;20029;-68
2021/09/02 03:33:22;;;;;;;11.80;6.55;;;;;;;-146.90;100.00;60518.97;5048036;28;20027;-68
2021/09/02 03:35:48;;;;;;;15.80;6.55;;;;;;;-146.90;100.00;60518.97;5049713;28;20358;-68
2021/09/02 03:38:13;;;;;;;10.43;6.30;;;;;;;-146.90;100.00;60518.97;5048213;28;20020;-68
2021/09/02 03:40:38;;;;;;;13.25;6.93;;;;;;;-146.90;100.00;60518.97;5049779;28;20391;-69
2021/09/02 03:43:04;;;;;;;16.80;7.75;;;;;;;-146.90;100.00;60518.97;5049789;28;20029;-68
2021/09/02 03:45:29;;;;;;;14.15;6.82;;;;;;;-146.90;100.00;60518.97;5048787;28;20112;-68
2021/09/02 03:47:54;;;;;;;14.07;6.82;;;;;;;-146.90;100.00;60518.97;5049173;28;20367;-70
2021/09/02 03:50:20;;;;;;;13.57;6.90;;;;;;;-146.90;100.00;60518.97;5048725;28;20029;-69
2021/09/02 03:52:45;;;;;;;12.15;6.47;;;;;;;-146.90;100.00;60518.97;5047959;28;20541;-69
2021/09/02 03:55:12;;;;;;;12.77;6.40;;;;;;;-146.90;100.00;60518.97;5046853;28;20386;-70
2021/09/02 03:57:38;;;;;;;13.73;7.20;;;;;;;-146.90;100.00;60518.97;5052354;28;20037;-69
2021/09/02 04:00:06;;;;;;;13.88;6.72;;;;;;;-146.90;100.00;60518.97;5050722;28;20035;-69
2021/09/02 04:02:31;;;;;;;15.32;7.18;;;;;;;-146.90;100.00;60518.97;5052506;28;20029;-69
2021/09/02 04:04:57;;;;;;;13.63;6.60;;;;;;;-146.90;100.00;60518.97;5050515;28;20025;-68
2021/09/02 04:07:22;;;;;;;12.45;6.63;;;;;;;-146.90;100.00;60518.97;5052310;28;20053;-69
2021/09/02 04:09:48;;;;;;;11.02;6.43;;;;;;;-146.90;100.00;60518.97;5051916;28;20412;-68
2021/09/02 04:12:13;;;;;;;13.98;6.72;;;;;;;-146.90;100.00;60518.97;5052238;28;20067;-68
2021/09/02 04:14:38;;;;;;;13.07;6.40;;;;;;;-146.90;100.00;60518.97;5052106;28;20028;-68
2021/09/02 04:17:04;;;;;;;11.57;6.50;;;;;;;-146.90;100.00;60518.97;5052170;28;20126;-69
2021/09/02 04:19:29;;;;;;;13.60;6.32;;;;;;;-146.90;100.00;60518.97;5051731;28;20027;-68
2021/09/02 04:21:55;;;;;;;12.68;6.60;;;;;;;-146.90;100.00;60518.97;5052089;28;20319;-68
2021/09/02 04:24:20;;;;;;;13.88;6.57;;;;;;;-146.90;100.00;60518.97;5051842;28;20025;-69
2021/09/02 04:26:46;;;;;;;13.38;6.40;;;;;;;-146.90;100.00;60518.97;5051770;28;20100;-69
2021/09/02 04:29:11;;;;;;;15.02;6.30;;;;;;;-146.90;100.00;60518.97;5051634;28;20029;-69
2021/09/02 04:31:37;;;;;;;11.10;6.10;;;;;;;-146.90;100.00;60518.97;5051674;28;20033;-69
2021/09/02 04:34:02;;;;;;;12.90;6.45;;;;;;;-146.90;100.00;60518.97;5052047;28;20025;-67
2021/09/02 04:36:27;;;;;;;15.05;6.35;;;;;;;-146.90;100.00;60518.97;5051813;28;20025;-69
2021/09/02 04:38:53;;;;;;;11.48;6.70;;;;;;;-146.90;100.00;60518.97;5052108;28;20075;-70
2021/09/02 04:41:18;;;;;;;14.63;6.32;;;;;;;-146.90;100.00;60518.97;5051421;28;20132;-68
2021/09/02 04:43:43;;;;;;;10.57;5.70;;;;;;;-146.90;100.00;60518.97;5049960;28;20017;-69
2021/09/02 04:46:11;;;;;;;13.50;6.15;;;;;;;-146.90;100.00;60518.97;5051192;28;20074;-69
2021/09/02 04:48:38;;;;;;;13.73;6.55;;;;;;;-146.90;100.00;60518.97;5051671;28;20505;-69
2021/09/02 04:51:03;;;;;;;17.48;6.57;;;;;;;-146.90;100.00;60518.97;5051337;28;20104;-68
2021/09/02 04:53:29;;;;;;;12.35;6.00;;;;;;;-146.90;100.00;60518.97;5051298;28;20036;-68
2021/09/02 04:55:54;;;;;;;12.88;6.55;;;;;;;-146.90;100.00;60518.97;5050802;28;20104;-68
2021/09/02 04:58:19;;;;;;;13.35;6.63;;;;;;;-146.90;100.00;60518.97;5050952;28;20049;-68
2021/09/02 05:00:45;;;;;;;13.88;5.95;;;;;;;-146.90;100.00;60518.97;5050440;28;20548;-70
2021/09/02 05:03:10;;;;;;;12.07;6.20;;;;;;;-146.90;100.00;60518.97;5049543;28;20513;-69
2021/09/02 05:05:35;;;;;;;12.57;6.50;;;;;;;-146.90;100.00;60518.97;5049591;28;20442;-70
2021/09/02 05:08:01;;;;;;;14.15;6.55;;;;;;;-146.90;100.00;60518.97;5050886;28;20078;-69
2021/09/02 05:10:26;;;;;;;11.75;6.38;;;;;;;-146.90;100.00;60518.97;5051146;28;20039;-72
2021/09/02 05:12:52;;;;;;;12.27;6.97;;;;;;;-146.90;100.00;60518.97;5050610;28;20497;-69
2021/09/02 05:15:18;;;;;;;12.48;6.43;;;;;;;-146.90;100.00;60518.97;5049515;28;20031;-67
2021/09/02 05:17:44;;;;;;;13.18;6.57;;;;;;;-146.90;100.00;60518.97;5049559;28;20029;-69
2021/09/02 05:20:10;;;;;;;15.07;6.45;;;;;;;-146.90;100.00;60518.97;5049710;28;20032;-68
2021/09/02 05:22:35;;;;;;;12.55;6.82;;;;;;;-146.90;100.00;60518.97;5051532;28;20355;-69
2021/09/02 05:25:00;;;;;;;17.27;7.05;;;;;;;-146.90;100.00;60518.97;5050939;28;20028;-68
2021/09/02 05:27:26;;;;;;;15.85;7.10;;;;;;;-146.90;100.00;60518.97;5051164;28;20340;-68
2021/09/02 05:29:51;;;;;;;16.95;6.82;;;;;;;-146.90;100.00;60518.97;5051012;28;20029;-71
2021/09/02 05:32:16;;;;;;;14.23;7.38;;;;;;;-146.90;100.00;60518.97;5051028;28;20413;-68
2021/09/02 05:34:42;;;;;;;18.08;6.72;;;;;;;-146.90;100.00;60518.97;5033070;28;20025;-71
2021/09/02 05:37:07;;;;;;;15.05;6.82;;;;;;;-146.90;100.00;60518.97;5032236;28;20029;-68
2021/09/02 05:39:33;;;;;;;14.60;7.57;;;;;;;-146.90;100.00;60518.97;5049864;28;20374;-70
2021/09/02 05:41:58;;;;;;;13.80;7.22;;;;;;;-146.90;100.00;60518.97;5050063;28;20514;-69
2021/09/02 05:44:24;;;;;;;13.55;7.72;;;;;;;-146.90;100.00;60518.97;5050652;28;20470;-68
2021/09/02 05:46:49;;;;;;;14.80;7.68;;;;;;;-146.90;100.00;60518.97;5049327;28;20441;-69
2021/09/02 05:49:14;;;;;;;28.65;9.80;;;;;;;-146.90;100.00;60518.97;5050026;28;20455;-72
2021/09/02 05:51:40;;;;;;;28.60;9.68;;;;;;;-146.90;100.00;60518.97;5050995;28;20466;-69
2021/09/02 05:54:05;;;;;;;23.27;8.85;;;;;;;-146.90;100.00;60518.97;5050314;28;20060;-70
2021/09/02 05:56:31;;;;;;;19.52;8.52;;;;;;;-146.90;100.00;60518.97;5049485;28;20083;-71
2021/09/02 05:58:56;;;;;;;22.13;8.68;;;;;;;-146.90;100.00;60518.97;5050344;28;20112;-68
2021/09/02 06:01:22;;;;;;;17.95;8.32;;;;;;;-146.90;100.00;60518.97;5050171;28;20038;-68
2021/09/02 06:03:47;;;;;;;19.45;8.95;;;;;;;-146.90;100.00;60518.97;5050111;28;20095;-72
2021/09/02 06:06:13;;;;;;;15.55;8.20;;;;;;;-146.90;100.00;60518.97;5050331;28;20087;-69
2021/09/02 06:08:38;;;;;;;19.90;9.13;;;;;;;-146.90;100.00;60518.97;5048734;28;20025;-68
2021/09/02 06:11:05;;;;;;;19.50;9.48;;;;;;;-146.90;100.00;60518.97;5050584;28;20120;-69
2021/09/02 06:13:31;;;;;;;18.55;8.85;;;;;;;-146.90;100.00;60518.97;5049981;28;20074;-69
2021/09/02 06:15:56;;;;;;;18.63;9.45;;;;;;;-146.90;100.00;60518.97;5049703;28;20470;-69
2021/09/02 06:18:21;;;;;;;19.95;9.30;;;;;;;-146.90;100.00;60518.97;5048685;28;20037;-69
2021/09/02 06:20:47;;;;;;;21.92;10.35;;;;;;;-146.90;100.00;60518.97;5049767;28;20021;-69
2021/09/02 06:23:12;;;;;;;26.92;10.30;;;;;;;-146.90;100.00;60518.97;5048891;28;20033;-70
2021/09/02 06:25:37;;;;;;;28.85;10.25;;;;;;;-146.90;100.00;60518.97;5049467;28;20044;-69
2021/09/02 06:28:03;;;;;;;25.77;10.65;;;;;;;-146.90;100.00;60518.97;5049618;28;20020;-69
2021/09/02 06:30:29;;;;;;;25.50;9.75;;;;;;;-146.90;100.00;60518.97;5048348;28;20025;-68
2021/09/02 06:32:54;;;;;;;22.52;10.35;;;;;;;-146.90;100.00;60518.97;5047904;28;20410;-68
2021/09/02 06:35:19;;;;;;;26.00;10.18;;;;;;;-146.90;100.00;60518.97;5048996;28;20028;-68
2021/09/02 06:37:45;;;;;;;25.35;10.65;;;;;;;-146.90;100.00;60518.97;5049480;28;20021;-72
2021/09/02 06:40:10;;;;;;;23.15;10.43;;;;;;;-146.90;100.00;60518.97;5049163;28;20496;-69
2021/09/02 06:42:36;;;;;;;24.75;10.65;;;;;;;-146.90;100.00;60518.97;5047565;28;20567;-68
2021/09/02 06:45:01;;;;;;;22.23;10.35;;;;;;;-146.90;100.00;60518.97;5048663;28;20037;-68
2021/09/02 06:47:27;;;;;;;23.40;9.70;;;;;;;-146.90;100.00;60518.97;5049160;28;20021;-68
2021/09/02 06:49:52;;;;;;;21.55;9.65;;;;;;;-146.90;100.00;60518.97;5048887;28;20025;-70
2021/09/02 06:52:17;;;;;;;23.17;10.60;;;;;;;-146.90;100.00;60518.97;5049269;28;20355;-71
2021/09/02 06:54:43;;;;;;;27.48;10.90;;;;;;;-146.90;100.00;60518.97;5048697;28;20036;-69
2021/09/02 06:57:08;;;;;;;24.50;9.80;;;;;;;-146.90;100.00;60518.97;5048903;28;20062;-69
2021/09/02 06:59:33;;;;;;;26.88;9.88;;;;;;;-146.90;100.00;60518.97;5046998;28;20102;-69
2021/09/02 07:01:59;;;;;;;21.38;9.07;;;;;;;-146.90;100.00;60518.97;5046281;28;20025;-71
2021/09/02 07:04:24;;;;;;;19.88;8.30;;;;;;;-146.90;100.00;60518.97;5047732;28;20043;-70
2021/09/02 07:06:49;;;;;;;19.73;9.05;;;;;;;-146.90;100.00;60518.97;5049041;28;20028;-69
2021/09/02 07:09:15;;;;;;;21.23;8.55;;;;;;;-146.90;100.00;60518.97;5049078;28;20049;-68
2021/09/02 07:11:40;;;;;;;21.20;8.73;;;;;;;-146.90;100.00;60518.97;5048755;28;20025;-69
2021/09/02 07:14:05;;;;;;;23.52;8.23;;;;;;;-146.90;100.00;60518.97;5049036;28;20633;-69
2021/09/02 07:16:31;;;;;;;22.27;9.15;;;;;;;-146.90;100.00;60518.97;5048865;28;20052;-68
2021/09/02 07:18:56;;;;;;;17.50;8.82;;;;;;;-146.90;100.00;60518.97;5049324;28;20068;-69
2021/09/02 07:21:21;;;;;;;18.38;8.13;;;;;;;-146.90;100.00;60518.97;5048642;28;20028;-69
2021/09/02 07:23:47;;;;;;;17.20;7.38;;;;;;;-146.90;100.00;60518.97;5048895;28;20021;-71
2021/09/02 07:26:12;;;;;;;16.33;7.22;;;;;;;-146.90;100.00;60518.97;5048963;28;20021;-71
2021/09/02 07:28:37;;;;;;;16.48;6.85;;;;;;;-146.90;100.00;60518.97;5049212;28;20025;-70
2021/09/02 07:31:03;;;;;;;16.55;8.07;;;;;;;-146.90;100.00;60518.97;5050751;28;20028;-69
2021/09/02 07:33:28;;;;;;;13.48;6.38;;;;;;;-146.90;100.00;60518.97;5053425;28;20116;-69
2021/09/02 07:35:54;;;;;;;18.92;7.15;;;;;;;-146.90;100.00;60518.97;5035247;28;20021;-70
2021/09/02 07:38:19;;;;;;;14.55;6.68;;;;;;;-146.90;100.00;60518.97;5053554;28;20452;-69
2021/09/02 07:40:44;;;;;;;14.15;6.78;;;;;;;-146.90;100.00;60518.97;5053106;28;20037;-70
2021/09/02 07:43:10;;;;;;;12.98;6.68;;;;;;;-146.90;100.00;60518.97;5052873;28;20029;-68
2021/09/02 07:45:35;;;;;;;17.98;7.50;;;;;;;-146.90;100.00;60518.97;5053498;28;20643;-68
2021/09/02 07:48:00;;;;;;;13.32;6.45;;;;;;;-146.90;100.00;60518.97;5052838;28;20500;-70
2021/09/02 07:50:26;;;;;;;14.35;7.30;;;;;;;-146.90;100.00;60518.97;5052531;28;20097;-68
2021/09/02 07:52:52;;;;;;;18.40;6.97;;;;;;;-146.90;100.00;60518.97;5052350;28;20135;-69
2021/09/02 07:55:17;;;;;;;17.25;7.55;;;;;;;-146.90;100.00;60518.97;5052351;28;20017;-69
2021/09/02 07:57:47;;;;;;;15.35;7.57;;;;;;;-146.90;100.00;60518.97;5052004;28;20488;-68
2021/09/02 08:00:13;;;;;;;20.63;7.70;;;;;;;-146.90;100.00;60518.97;5052524;28;20029;-68
2021/09/02 08:02:39;;;;;;;18.15;7.57;;;;;;;-146.90;100.00;60518.97;5052005;28;20132;-68
2021/09/02 08:05:05;;;;;;;17.98;8.05;;;;;;;-146.90;100.00;60518.97;5050696;28;20032;-68
2021/09/02 08:07:30;;;;;;;19.70;7.07;;;;;;;-146.90;100.00;60518.97;5052035;28;20055;-69
2021/09/02 08:09:55;;;;;;;17.50;7.10;;;;;;;-146.90;100.00;60518.97;5051878;28;20021;-69
2021/09/02 08:12:21;;;;;;;14.30;7.15;;;;;;;-146.90;100.00;60518.97;5040332;28;20036;-69
2021/09/02 08:14:48;;;;;;;16.42;6.60;;;;;;;-146.90;100.00;60518.97;5031151;28;20028;-69
2021/09/02 08:17:14;;;;;;;15.93;7.25;;;;;;;-146.90;100.00;60518.97;5038594;28;20548;-72
2021/09/02 08:19:39;;;;;;;16.70;7.22;;;;;;;-146.90;100.00;60518.97;5045761;28;20112;-69
2021/09/02 08:22:04;;;;;;;15.43;6.88;;;;;;;-146.90;100.00;60518.97;5029897;28;20045;-70
2021/09/02 08:24:30;;;;;;;17.98;7.10;;;;;;;-146.90;100.00;60518.97;5029776;28;20025;-69
2021/09/02 08:26:55;;;;;;;17.38;7.88;;;;;;;-146.90;100.00;60518.97;5029571;28;20147;-69
2021/09/02 08:29:20;;;;;;;13.57;6.45;;;;;;;-146.90;100.00;60518.97;5034561;28;20076;-70
2021/09/02 08:31:46;;;;;;;16.15;7.40;;;;;;;-146.90;100.00;60518.97;5038937;28;20438;-72
2021/09/02 08:34:11;;;;;;;15.55;6.93;;;;;;;-146.90;100.00;60518.97;5030598;28;20799;-69
2021/09/02 08:36:36;;;;;;;15.13;7.07;;;;;;;-146.90;100.00;60518.97;5037257;28;20054;-69
2021/09/02 08:39:02;;;;;;;12.23;6.20;;;;;;;-146.90;100.00;60518.97;5030917;28;20112;-68
2021/09/02 08:41:28;;;;;;;20.73;8.30;;;;;;;-146.90;100.00;60518.97;5032027;28;20143;-67
2021/09/02 08:43:53;;;;;;;20.88;9.50;;;;;;;-146.90;100.00;60518.97;5014564;28;20030;-72
2021/09/02 08:46:19;;;;;;;28.05;11.88;;;;;;;-146.90;100.00;60518.97;5045221;28;20092;-69
2021/09/02 08:48:47;;;;;;;24.60;11.27;;;;;;;-146.90;100.00;60518.97;5044132;28;20029;-69
2021/09/02 08:51:13;;;;;;;28.13;12.10;;;;;;;-146.90;100.00;60518.97;5035048;28;20100;-69
2021/09/02 08:53:38;;;;;;;30.13;13.48;;;;;;;-146.90;100.00;60518.97;5031168;28;20120;-68
2021/09/02 08:56:04;;;;;;;28.20;13.25;;;;;;;-146.90;100.00;60518.97;5030900;28;20543;-72
2021/09/02 08:58:31;;;;;;;35.67;15.20;;;;;;;-146.90;100.00;60518.97;5030668;28;20028;-68
2021/09/02 09:00:57;;;;;;;29.85;13.95;;;;;;;-146.90;100.00;60518.97;5031905;28;20072;-70
2021/09/02 09:03:23;;;;;;;31.67;14.15;;;;;;;-146.90;100.00;60518.97;5032241;28;20057;-68
2021/09/02 09:05:54;;;;;;;31.80;14.07;;;;;;;-146.90;100.00;60518.97;5030423;28;20026;-68
2021/09/02 09:08:19;;;;;;;27.70;13.95;;;;;;;-146.90;100.00;60518.97;5031328;28;20383;-68
2021/09/02 09:10:45;;;;;;;31.75;14.48;;;;;;;-146.90;100.00;60518.97;5031151;28;20049;-69
2021/09/02 09:13:11;;;;;;;33.45;14.68;;;;;;;-146.90;100.00;60518.97;5031184;28;20441;-71
2021/09/02 09:15:42;;;;;;;29.67;13.77;;;;;;;-146.90;100.00;60518.97;5029779;28;20025;-68
2021/09/02 09:18:18;;;;;;;29.48;13.70;;;;;;;-146.90;100.00;60518.97;5013044;28;20026;-71
2021/09/02 09:20:43;;;;;;;33.03;13.90;;;;;;;-146.90;100.00;60518.97;5031532;28;20030;-70
2021/09/02 09:23:09;;;;;;;31.52;13.32;;;;;;;-146.90;100.00;60518.97;5030841;28;20043;-68
2021/09/02 09:25:34;;;;;;;27.13;13.07;;;;;;;-146.90;100.00;60518.97;5030252;28;20407;-69
2021/09/02 09:28:00;;;;;;;29.95;13.85;;;;;;;-146.90;100.00;60518.97;5033216;28;20029;-69
2021/09/02 09:30:29;;;;;;;29.52;12.48;;;;;;;-146.90;100.00;60518.97;5033566;28;20102;-71
2021/09/02 09:32:55;;;;;;;26.48;12.32;;;;;;;-146.90;100.00;60518.97;5033261;28;20051;-68
2021/09/02 09:35:27;;;;;;;30.70;11.77;;;;;;;-146.90;100.00;60518.97;5035185;28;20152;-69
2021/09/02 09:38:09;;;;;;;29.77;13.02;;;;;;;-146.90;100.00;60518.97;5038772;28;20036;-70
2021/09/02 09:40:39;;;;;;;26.92;11.68;;;;;;;-146.90;100.00;60518.97;5035012;28;20458;-69
2021/09/02 09:43:07;;;;;;;26.70;12.05;;;;;;;-146.90;100.00;60518.97;5031938;28;20124;-68
2021/09/02 09:45:36;;;;;;;24.70;11.18;;;;;;;-146.90;100.00;60518.97;5030441;28;20089;-68
2021/09/02 09:48:01;;;;;;;26.13;10.98;;;;;;;-146.90;100.00;60518.97;5031414;28;20048;-69
2021/09/02 09:50:27;;;;;;;26.35;12.13;;;;;;;-146.90;100.00;60518.97;5030122;28;20025;-68
2021/09/02 09:52:52;;;;;;;25.95;11.82;;;;;;;-146.90;100.00;60518.97;5028780;28;20021;-69
2021/09/02 09:55:17;;;;;;;28.45;11.80;;;;;;;-146.90;100.00;60518.97;5013137;28;20033;-69
2021/09/02 09:57:44;;;;;;;25.02;11.25;;;;;;;-146.90;100.00;60518.97;5030653;28;20029;-71
2021/09/02 10:00:11;;;;;;;26.23;10.93;;;;;;;-146.90;100.00;60518.97;5030846;28;20025;-68
2021/09/02 10:02:38;;;;;;;28.17;11.38;;;;;;;-146.90;100.00;60518.97;5031037;28;20029;-68
2021/09/02 10:05:12;;;;;;;23.90;11.25;;;;;;;-146.90;100.00;60518.97;5030462;28;20032;-69
2021/09/02 10:07:40;;;;;;;27.63;11.65;;;;;;;-146.90;100.00;60518.97;5028757;28;20057;-69
2021/09/02 10:10:09;;;;;;;22.55;10.40;;;;;;;-146.90;100.00;60518.97;5030457;28;20526;-70
2021/09/02 10:12:35;;;;;;;21.13;10.45;;;;;;;-146.90;100.00;60518.97;5029042;28;20040;-68
2021/09/02 10:15:08;;;;;;;28.98;10.05;;;;;;;-146.90;100.00;60518.97;5030149;28;20045;-69
2021/09/02 10:17:34;;;;;;;26.55;11.02;;;;;;;-146.90;100.00;60518.97;5029160;28;20037;-69
2021/09/02 10:20:04;;;;;;;21.67;9.30;;;;;;;-146.90;100.00;60518.97;5030457;28;20037;-69
2021/09/02 10:22:30;;;;;;;25.05;9.77;;;;;;;-146.90;100.00;60518.97;5011955;28;20126;-68
2021/09/02 10:24:55;;;;;;;21.60;8.82;;;;;;;-146.90;100.00;60518.97;5028297;28;20025;-69
2021/09/02 10:27:20;;;;;;;14.90;7.13;;;;;;;-146.90;100.00;60518.97;5029338;28;20040;-70
2021/09/02 10:29:46;;;;;;;19.10;7.77;;;;;;;-146.90;100.00;60518.97;5029474;28;20025;-69
2021/09/02 10:32:23;;;;;;;14.75;7.32;;;;;;;-146.90;100.00;60518.97;5029249;28;20036;-69
2021/09/02 10:35:10;;;;;;;16.23;7.90;;;;;;;-146.90;100.00;60518.97;5029547;28;20074;-70
2021/09/02 10:37:35;;;;;;;15.75;7.32;;;;;;;-146.90;100.00;60518.97;5028068;28;20091;-69
2021/09/02 10:40:08;;;;;;;19.80;8.02;;;;;;;-146.90;100.00;60518.97;5029304;28;20375;-70
2021/09/02 10:42:49;;;;;;;18.55;8.00;;;;;;;-146.90;100.00;60518.97;5029123;28;20120;-70
2021/09/02 10:47:56;;;;;;;15.77;7.38;;;;;;;-146.90;100.00;60518.97;5029032;28;20034;-71
2021/09/02 10:50:29;;;;;;;20.00;8.73;;;;;;;-146.90;100.00;60518.97;5029253;28;20021;-70
2021/09/02 10:53:25;;;;;;;17.00;7.72;;;;;;;-146.90;100.00;60518.97;5028837;28;20060;-68
2021/09/02 10:55:52;;;;;;;19.13;8.27;;;;;;;-146.90;100.00;60518.97;5029365;28;20026;-69
2021/09/02 10:58:50;;;;;;;16.90;7.57;;;;;;;-146.90;100.00;60518.97;5029060;28;20076;-71
2021/09/02 11:01:21;;;;;;;14.60;7.30;;;;;;;-146.90;100.00;60518.97;5027965;28;20095;-70